createdAt,value
2023-05-14T00:00:25.848Z,1.70
2023-05-14T00:02:53.158Z,1.10
2023-05-14T00:05:20.410Z,0.80
2023-05-14T00:07:47.757Z,0.80
2023-05-14T00:10:14.725Z,1.60
2023-05-14T00:12:41.874Z,1.20
2023-05-14T00:15:09.518Z,1.00
2023-05-14T00:17:37.318Z,1.10
2023-05-14T00:20:07.342Z,1.40
2023-05-14T00:22:34.957Z,1.70
2023-05-14T00:25:01.896Z,1.40
2023-05-14T00:27:28.837Z,1.10
2023-05-14T00:29:56.008Z,2.30
2023-05-14T00:32:23.477Z,1.30
2023-05-14T00:34:50.591Z,2.40
2023-05-14T00:37:17.641Z,1.30
2023-05-14T00:39:44.532Z,2.90
2023-05-14T00:42:11.399Z,3.30
2023-05-14T00:44:38.274Z,4.30
2023-05-14T00:47:05.431Z,3.00
2023-05-14T00:49:33.176Z,2.50
2023-05-14T00:52:00.748Z,2.70
2023-05-14T00:54:27.817Z,2.80
2023-05-14T00:56:54.827Z,2.20
2023-05-14T00:59:21.805Z,2.80
2023-05-14T01:01:48.690Z,2.00
2023-05-14T01:04:16.066Z,1.90
2023-05-14T01:07:07.527Z,1.10
2023-05-14T01:09:56.135Z,1.90
2023-05-14T01:12:40.618Z,2.40
2023-05-14T01:15:13.984Z,0.70
2023-05-14T01:17:47.441Z,1.50
2023-05-14T01:20:14.652Z,1.30
2023-05-14T01:22:41.580Z,1.90
2023-05-14T01:25:09.342Z,1.40
2023-05-14T01:27:41.401Z,2.00
2023-05-14T01:30:20.916Z,2.00
2023-05-14T01:32:49.801Z,2.40
2023-05-14T01:35:18.006Z,1.10
2023-05-14T01:37:45.051Z,3.00
2023-05-14T01:40:12.568Z,2.50
2023-05-14T01:42:39.549Z,2.30
2023-05-14T01:45:07.109Z,1.40
2023-05-14T01:47:34.064Z,1.70
2023-05-14T01:50:00.991Z,1.00
2023-05-14T01:52:27.938Z,0.70
2023-05-14T01:54:54.882Z,1.20
2023-05-14T01:57:22.129Z,2.00
2023-05-14T01:59:49.072Z,1.40
2023-05-14T02:02:15.931Z,1.80
2023-05-14T02:04:43.042Z,1.30
2023-05-14T02:07:10.010Z,1.10
2023-05-14T02:09:36.963Z,1.40
2023-05-14T02:12:04.258Z,1.00
2023-05-14T02:14:31.656Z,2.20
2023-05-14T02:16:58.808Z,2.00
2023-05-14T02:19:25.953Z,2.10
2023-05-14T02:21:52.977Z,1.80
2023-05-14T02:24:19.945Z,1.80
2023-05-14T02:26:46.992Z,1.90
2023-05-14T02:29:14.037Z,2.30
2023-05-14T02:31:40.973Z,1.70
2023-05-14T02:34:07.877Z,1.40
2023-05-14T02:36:34.873Z,1.00
2023-05-14T02:39:02.025Z,1.70
2023-05-14T02:41:29.062Z,0.60
2023-05-14T02:43:56.108Z,1.30
2023-05-14T02:46:23.162Z,3.20
2023-05-14T02:48:50.100Z,1.50
2023-05-14T02:51:16.978Z,2.20
2023-05-14T02:53:43.986Z,1.80
2023-05-14T02:56:10.850Z,1.80
2023-05-14T02:58:37.787Z,2.50
2023-05-14T03:01:04.848Z,1.50
2023-05-14T03:03:32.376Z,2.10
2023-05-14T03:06:00.069Z,1.80
2023-05-14T03:08:27.083Z,0.50
2023-05-14T03:10:54.030Z,2.00
2023-05-14T03:13:21.071Z,2.00
2023-05-14T03:15:48.788Z,0.70
2023-05-14T03:18:15.881Z,1.50
2023-05-14T03:20:42.824Z,0.90
2023-05-14T03:23:09.718Z,1.60
2023-05-14T03:25:36.624Z,1.70
2023-05-14T03:28:04.074Z,2.10
2023-05-14T03:30:31.032Z,1.40
2023-05-14T03:32:58.781Z,0.20
2023-05-14T03:35:26.128Z,0.90
2023-05-14T03:37:53.196Z,1.70
2023-05-14T03:40:21.729Z,2.00
2023-05-14T03:42:49.387Z,1.20
2023-05-14T03:45:16.414Z,1.30
2023-05-14T03:47:43.411Z,0.70
2023-05-14T03:50:10.590Z,1.20
2023-05-14T03:52:37.617Z,1.40
2023-05-14T03:55:05.114Z,1.60
2023-05-14T03:57:32.013Z,1.20
2023-05-14T03:59:59.144Z,1.10
2023-05-14T04:02:26.194Z,1.90
2023-05-14T04:04:55.527Z,1.20
2023-05-14T04:07:22.757Z,1.70
2023-05-14T04:09:49.686Z,2.00
2023-05-14T04:12:18.442Z,1.60
2023-05-14T04:14:45.421Z,1.80
2023-05-14T04:17:12.391Z,2.70
2023-05-14T04:19:40.601Z,2.30
2023-05-14T04:22:07.578Z,1.90
2023-05-14T04:24:34.524Z,2.20
2023-05-14T04:27:01.468Z,2.60
2023-05-14T04:29:28.512Z,1.80
2023-05-14T04:31:56.262Z,2.30
2023-05-14T04:34:23.275Z,2.00
2023-05-14T04:36:50.388Z,2.40
2023-05-14T04:39:17.412Z,2.20
2023-05-14T04:41:44.354Z,2.10
2023-05-14T04:44:12.829Z,2.20
2023-05-14T04:46:39.698Z,2.90
2023-05-14T04:49:06.620Z,2.30
2023-05-14T04:51:33.565Z,1.50
2023-05-14T04:54:00.659Z,1.50
2023-05-14T04:56:27.649Z,1.70
2023-05-14T04:58:54.561Z,1.70
2023-05-14T05:01:23.544Z,1.80
2023-05-14T05:03:51.001Z,2.00
2023-05-14T05:06:17.928Z,1.70
2023-05-14T05:08:44.781Z,1.60
2023-05-14T05:11:11.781Z,1.50
2023-05-14T05:13:38.726Z,2.00
2023-05-14T05:16:06.330Z,2.60
2023-05-14T05:18:33.443Z,1.90
2023-05-14T05:21:00.869Z,2.60
2023-05-14T05:23:27.833Z,1.20
2023-05-14T05:25:54.787Z,1.10
2023-05-14T05:28:21.820Z,1.00
2023-05-14T05:30:48.769Z,1.40
2023-05-14T05:33:15.713Z,1.80
2023-05-14T05:35:44.705Z,1.80
2023-05-14T05:38:11.623Z,1.70
2023-05-14T05:40:38.476Z,2.00
2023-05-14T05:43:05.758Z,1.10
2023-05-14T05:45:32.882Z,1.50
2023-05-14T05:47:59.873Z,1.60
2023-05-14T05:50:26.930Z,1.70
2023-05-14T05:52:53.922Z,1.30
2023-05-14T05:55:21.074Z,2.20
2023-05-14T05:57:48.047Z,1.40
2023-05-14T06:00:15.664Z,1.70
2023-05-14T06:02:43.034Z,1.70
2023-05-14T06:05:12.045Z,1.50
2023-05-14T06:07:39.408Z,1.20
2023-05-14T06:10:07.559Z,1.40
2023-05-14T06:12:34.609Z,1.20
2023-05-14T06:15:01.516Z,1.90
2023-05-14T06:17:28.543Z,1.50
2023-05-14T06:19:55.637Z,1.00
2023-05-14T06:22:24.109Z,1.00
2023-05-14T06:24:51.038Z,0.90
2023-05-14T06:27:18.101Z,0.80
2023-05-14T06:29:45.083Z,0.60
2023-05-14T06:32:15.774Z,0.90
2023-05-14T06:34:42.925Z,1.20
2023-05-14T06:37:10.691Z,1.20
2023-05-14T06:39:37.749Z,1.10
2023-05-14T06:42:05.509Z,1.50
2023-05-14T06:44:32.514Z,1.20
2023-05-14T06:46:59.453Z,1.20
2023-05-14T06:49:26.442Z,1.00
2023-05-14T06:51:54.402Z,1.30
2023-05-14T06:54:21.345Z,0.90
2023-05-14T06:56:48.327Z,2.20
2023-05-14T06:59:15.540Z,1.20
2023-05-14T07:01:42.722Z,1.50
2023-05-14T07:04:10.352Z,1.40
2023-05-14T07:06:37.913Z,0.90
2023-05-14T07:09:06.847Z,0.70
2023-05-14T07:11:34.881Z,1.30
2023-05-14T07:14:01.815Z,0.90
2023-05-14T07:16:29.325Z,1.00
2023-05-14T07:18:56.313Z,1.30
2023-05-14T07:21:23.251Z,1.10
2023-05-14T07:23:50.205Z,1.10
2023-05-14T07:26:17.166Z,1.10
2023-05-14T07:28:44.197Z,1.10
2023-05-14T07:31:11.175Z,1.60
2023-05-14T07:33:38.391Z,0.70
2023-05-14T07:36:06.165Z,1.20
2023-05-14T07:38:33.199Z,1.10
2023-05-14T07:41:00.151Z,1.50
2023-05-14T07:43:27.099Z,0.90
2023-05-14T07:45:54.138Z,1.80
2023-05-14T07:48:21.222Z,1.00
2023-05-14T07:50:48.985Z,1.00
2023-05-14T07:53:15.990Z,1.10
2023-05-14T07:55:45.497Z,1.70
2023-05-14T07:58:13.127Z,1.00
2023-05-14T08:00:43.508Z,0.70
2023-05-14T08:03:11.102Z,1.50
2023-05-14T08:05:41.097Z,1.20
2023-05-14T08:08:09.984Z,1.20
2023-05-14T08:10:37.782Z,1.20
2023-05-14T08:13:05.010Z,1.20
2023-05-14T08:18:43.296Z,0.80
2023-05-14T08:21:10.342Z,0.90
2023-05-14T08:23:37.437Z,1.20
2023-05-14T08:26:04.476Z,1.10
2023-05-14T08:28:31.641Z,1.40
2023-05-14T08:30:59.142Z,1.10
2023-05-14T08:33:26.683Z,0.80
2023-05-14T08:35:54.920Z,0.80
2023-05-14T08:38:21.965Z,0.80
2023-05-14T08:40:58.026Z,1.00
2023-05-14T08:43:28.008Z,1.30
2023-05-14T08:45:58.293Z,0.90
2023-05-14T08:48:26.070Z,0.90
2023-05-14T08:50:53.120Z,1.10
2023-05-14T08:53:20.123Z,1.10
2023-05-14T08:55:47.169Z,1.10
2023-05-14T08:58:14.105Z,1.10
2023-05-14T09:00:41.219Z,1.40
2023-05-14T09:03:08.191Z,0.90
2023-05-14T09:05:35.476Z,1.50
2023-05-14T09:08:02.609Z,1.20
2023-05-14T09:10:29.566Z,1.00
2023-05-14T09:12:56.506Z,1.30
2023-05-14T09:15:23.767Z,0.70
2023-05-14T09:17:50.754Z,1.70
2023-05-14T09:20:17.836Z,0.90
2023-05-14T09:22:44.881Z,0.90
2023-05-14T09:25:14.627Z,0.50
2023-05-14T09:27:41.625Z,0.80
2023-05-14T09:30:10.758Z,1.00
2023-05-14T09:32:44.605Z,0.90
2023-05-14T09:35:19.425Z,0.80
2023-05-14T09:37:52.295Z,1.10
2023-05-14T09:40:20.745Z,0.80
2023-05-14T09:42:51.227Z,0.80
2023-05-14T09:45:21.030Z,0.80
2023-05-14T09:47:49.775Z,0.80
2023-05-14T09:50:23.333Z,1.20
2023-05-14T09:52:51.019Z,0.80
2023-05-14T09:55:18.318Z,0.70
2023-05-14T09:57:45.614Z,0.90
2023-05-14T10:00:13.294Z,0.80
2023-05-14T10:02:41.474Z,0.90
2023-05-14T10:05:09.835Z,0.70
2023-05-14T10:07:42.922Z,1.10
2023-05-14T10:10:12.727Z,1.40
2023-05-14T10:12:40.153Z,1.00
2023-05-14T10:15:20.033Z,1.20
2023-05-14T10:17:49.789Z,0.80
2023-05-14T10:20:17.925Z,0.60
2023-05-14T10:22:45.086Z,1.60
2023-05-14T10:25:12.161Z,0.80
2023-05-14T10:27:39.672Z,0.90
2023-05-14T10:30:12.163Z,0.80
2023-05-14T10:32:39.453Z,0.70
2023-05-14T10:35:20.977Z,0.50
2023-05-14T10:37:51.508Z,1.40
2023-05-14T10:40:19.698Z,0.50
2023-05-14T10:42:51.308Z,0.50
2023-05-14T10:45:21.159Z,0.70
2023-05-14T10:47:50.009Z,1.30
2023-05-14T10:50:20.980Z,1.00
2023-05-14T10:52:51.278Z,0.90
2023-05-14T10:55:18.602Z,1.10
2023-05-14T10:57:46.552Z,0.70
2023-05-14T11:00:14.698Z,0.40
2023-05-14T11:02:43.720Z,0.70
2023-05-14T11:05:14.321Z,1.00
2023-05-14T11:07:42.598Z,0.50
2023-05-14T11:10:10.357Z,1.00
2023-05-14T11:12:39.249Z,0.70
2023-05-14T11:15:11.289Z,0.80
2023-05-14T11:17:40.548Z,0.80
2023-05-14T11:20:08.265Z,0.80
2023-05-14T11:22:35.591Z,1.00
2023-05-14T11:25:02.578Z,0.70
2023-05-14T11:27:29.840Z,1.00
2023-05-14T11:29:58.187Z,0.40
2023-05-14T11:32:25.185Z,0.80
2023-05-14T11:34:52.137Z,1.10
2023-05-14T11:37:19.192Z,0.70
2023-05-14T11:39:47.632Z,0.70
2023-05-14T11:42:16.833Z,0.80
2023-05-14T11:44:47.034Z,0.90
2023-05-14T11:47:16.821Z,0.70
2023-05-14T11:49:43.752Z,0.70
2023-05-14T11:52:11.960Z,0.80
2023-05-14T11:54:39.026Z,0.80
2023-05-14T11:57:11.147Z,0.70
2023-05-14T11:59:39.175Z,1.10
2023-05-14T12:02:15.486Z,1.40
2023-05-14T12:04:42.869Z,0.80
2023-05-14T12:07:10.249Z,0.80
2023-05-14T12:09:44.224Z,1.30
2023-05-14T12:12:12.532Z,1.30
2023-05-14T12:14:42.883Z,0.90
2023-05-14T12:17:12.753Z,0.90
2023-05-14T12:19:42.110Z,1.00
2023-05-14T12:22:10.538Z,1.10
2023-05-14T12:24:39.665Z,1.10
2023-05-14T12:27:07.501Z,1.00
2023-05-14T12:29:39.334Z,0.90
2023-05-14T12:32:09.704Z,0.90
2023-05-14T12:34:37.740Z,0.90
2023-05-14T12:37:06.543Z,1.00
2023-05-14T12:39:34.710Z,0.60
2023-05-14T12:42:02.018Z,1.30
2023-05-14T12:44:29.098Z,1.00
2023-05-14T12:46:56.247Z,0.70
2023-05-14T12:49:23.236Z,0.60
2023-05-14T12:51:52.694Z,1.00
2023-05-14T12:54:23.836Z,0.90
2023-05-14T12:56:51.088Z,0.80
2023-05-14T12:59:18.266Z,1.50
2023-05-14T13:01:48.871Z,1.10
2023-05-14T13:04:16.231Z,0.90
2023-05-14T13:06:43.294Z,0.90
2023-05-14T13:09:10.342Z,0.70
2023-05-14T13:12:18.125Z,0.70
2023-05-14T13:14:45.058Z,0.90
2023-05-14T13:17:11.940Z,0.80
2023-05-14T13:19:39.182Z,0.90
2023-05-14T13:22:06.223Z,1.10
2023-05-14T13:24:34.449Z,1.00
2023-05-14T13:27:01.753Z,0.60
2023-05-14T13:29:31.813Z,1.20
2023-05-14T13:31:58.745Z,1.00
2023-05-14T13:34:25.750Z,0.80
2023-05-14T13:36:53.121Z,0.70
2023-05-14T13:39:27.388Z,1.00
2023-05-14T13:41:56.949Z,1.30
2023-05-14T13:44:24.468Z,0.70
2023-05-14T13:46:51.584Z,0.80
2023-05-14T13:49:18.746Z,1.30
2023-05-14T13:51:45.961Z,0.70
2023-05-14T13:54:13.008Z,1.00
2023-05-14T13:56:40.572Z,0.70
2023-05-14T13:59:07.610Z,0.90
2023-05-14T14:01:34.538Z,0.80
2023-05-14T14:04:01.681Z,0.60
2023-05-14T14:06:30.990Z,0.60
2023-05-14T14:08:58.170Z,0.50
2023-05-14T14:11:25.107Z,1.30
2023-05-14T14:13:52.064Z,0.80
2023-05-14T14:16:19.090Z,0.90
2023-05-14T14:18:46.217Z,0.60
2023-05-14T14:21:13.207Z,0.60
2023-05-14T14:23:40.551Z,1.00
2023-05-14T14:26:07.901Z,0.80
2023-05-14T14:28:34.817Z,0.70
2023-05-14T14:31:01.751Z,0.70
2023-05-14T14:33:28.806Z,0.50
2023-05-14T14:35:56.397Z,1.00
2023-05-14T14:38:23.374Z,1.00
2023-05-14T14:40:50.591Z,0.70
2023-05-14T14:43:17.642Z,0.70
2023-05-14T14:45:48.167Z,0.60
2023-05-14T14:48:31.574Z,0.40
2023-05-14T14:50:58.957Z,0.50
2023-05-14T14:53:25.931Z,1.20
2023-05-14T14:56:08.225Z,0.60
2023-05-14T14:58:35.257Z,1.30
2023-05-14T15:01:02.375Z,0.90
2023-05-14T15:03:29.504Z,1.00
2023-05-14T15:05:56.642Z,1.10
2023-05-14T15:08:26.165Z,1.00
2023-05-14T15:10:53.700Z,0.60
2023-05-14T15:13:20.945Z,0.60
2023-05-14T15:15:47.940Z,1.00
2023-05-14T15:18:14.944Z,1.40
2023-05-14T15:20:41.928Z,1.00
2023-05-14T15:23:08.918Z,0.90
2023-05-14T15:25:36.283Z,0.90
2023-05-14T15:28:03.969Z,1.90
2023-05-14T15:30:31.125Z,1.00
2023-05-14T15:32:58.275Z,1.20
2023-05-14T15:35:25.581Z,0.60
2023-05-14T15:37:55.412Z,0.50
2023-05-14T15:40:23.384Z,0.70
2023-05-14T15:42:50.656Z,1.30
2023-05-14T15:45:17.650Z,0.80
2023-05-14T15:47:45.444Z,1.00
2023-05-14T15:50:12.581Z,0.90
2023-05-14T15:52:39.785Z,0.50
2023-05-14T15:55:07.196Z,0.90
2023-05-14T15:57:34.537Z,1.10
2023-05-14T16:00:01.619Z,0.90
2023-05-14T16:02:33.563Z,1.10
2023-05-14T16:05:00.851Z,1.70
2023-05-14T16:07:28.669Z,1.00
2023-05-14T16:09:55.557Z,0.80
2023-05-14T16:12:22.803Z,1.00
2023-05-14T16:14:50.306Z,1.20
2023-05-14T16:17:17.180Z,0.80
2023-05-14T16:19:44.082Z,0.90
2023-05-14T16:22:10.998Z,0.50
2023-05-14T16:24:37.909Z,0.80
2023-05-14T16:27:05.153Z,1.10
2023-05-14T16:29:33.535Z,1.30
2023-05-14T16:32:02.006Z,1.00
2023-05-14T16:34:29.045Z,1.10
2023-05-14T16:36:56.021Z,1.40
2023-05-14T16:39:22.923Z,0.70
2023-05-14T16:41:49.903Z,1.50
2023-05-14T16:44:16.880Z,1.00
2023-05-14T16:46:43.834Z,1.20
2023-05-14T16:49:10.943Z,0.70
2023-05-14T16:51:42.624Z,1.10
2023-05-14T16:54:09.971Z,1.90
2023-05-14T16:56:37.123Z,1.20
2023-05-14T16:59:04.143Z,0.90
2023-05-14T17:01:31.551Z,0.90
2023-05-14T17:03:58.670Z,1.00
2023-05-14T17:06:25.966Z,1.10
2023-05-14T17:08:55.347Z,0.70
2023-05-14T17:11:22.253Z,1.30
2023-05-14T17:13:49.160Z,1.20
2023-05-14T17:16:16.539Z,0.90
2023-05-14T17:18:43.662Z,1.00
2023-05-14T17:21:10.639Z,1.10
2023-05-14T17:23:37.744Z,0.70
2023-05-14T17:26:05.038Z,1.10
2023-05-14T17:28:32.945Z,0.40
2023-05-14T17:31:00.012Z,1.20
2023-05-14T17:33:27.064Z,1.10
2023-05-14T17:35:54.053Z,0.80
2023-05-14T17:38:21.196Z,0.70
2023-05-14T17:40:48.112Z,0.90
2023-05-14T17:43:15.295Z,0.70
2023-05-14T17:45:53.339Z,0.80
2023-05-14T17:48:23.948Z,0.90
2023-05-14T17:50:52.612Z,0.70
2023-05-14T17:53:19.775Z,0.90
2023-05-14T17:55:48.218Z,1.10
2023-05-14T17:58:16.348Z,1.70
2023-05-14T18:00:44.344Z,0.50
2023-05-14T18:03:12.382Z,1.30
2023-05-14T18:05:39.631Z,1.20
2023-05-14T18:08:06.602Z,0.70
2023-05-14T18:10:33.622Z,1.10
2023-05-14T18:13:00.839Z,0.80
2023-05-14T18:15:27.925Z,1.60
2023-05-14T18:17:54.963Z,1.70
2023-05-14T18:20:22.216Z,1.40
2023-05-14T18:22:50.681Z,1.50
2023-05-14T18:25:17.996Z,0.90
2023-05-14T18:27:45.623Z,1.40
2023-05-14T18:30:14.784Z,1.30
2023-05-14T18:32:43.951Z,1.30
2023-05-14T18:35:11.790Z,1.00
2023-05-14T18:37:38.733Z,0.70
2023-05-14T18:40:07.192Z,2.20
2023-05-14T18:42:34.775Z,2.10
2023-05-14T18:45:02.041Z,1.90
2023-05-14T18:47:29.073Z,1.70
2023-05-14T18:49:59.166Z,2.70
2023-05-14T18:52:26.849Z,1.70
2023-05-14T18:54:55.115Z,0.70
2023-05-14T18:57:22.386Z,1.30
2023-05-14T18:59:49.640Z,1.60
2023-05-14T19:02:16.747Z,1.30
2023-05-14T19:04:52.193Z,1.00
2023-05-14T19:07:20.949Z,1.90
2023-05-14T19:09:48.253Z,2.10
2023-05-14T19:12:16.294Z,2.80
2023-05-14T19:14:43.344Z,2.00
2023-05-14T19:17:10.461Z,4.30
2023-05-14T19:19:37.880Z,3.80
2023-05-14T19:22:05.622Z,2.50
2023-05-14T19:24:32.666Z,1.70
2023-05-14T19:26:59.673Z,2.40
2023-05-14T19:29:26.633Z,1.70
2023-05-14T19:31:53.733Z,2.60
2023-05-14T19:34:22.903Z,1.80
2023-05-14T19:36:50.049Z,2.20
2023-05-14T19:39:16.911Z,2.30
2023-05-14T19:41:43.983Z,1.70
2023-05-14T19:44:11.050Z,1.60
2023-05-14T19:46:38.052Z,1.30
2023-05-14T19:49:05.364Z,1.20
2023-05-14T19:51:32.245Z,1.00
2023-05-14T19:53:59.167Z,1.10
2023-05-14T19:56:27.345Z,1.40
2023-05-14T19:58:54.525Z,1.00
2023-05-14T20:01:21.488Z,1.00
2023-05-14T20:03:48.461Z,1.10
2023-05-14T20:06:15.797Z,1.10
2023-05-14T20:08:42.916Z,2.00
2023-05-14T20:11:09.928Z,2.30
2023-05-14T20:13:37.184Z,1.70
2023-05-14T20:16:04.331Z,1.90
2023-05-14T20:18:31.623Z,2.50
2023-05-14T20:20:58.616Z,1.20
2023-05-14T20:23:25.673Z,1.80
2023-05-14T20:25:53.341Z,2.00
2023-05-14T20:28:20.283Z,2.00
2023-05-14T20:30:47.246Z,1.90
2023-05-14T20:33:15.201Z,1.40
2023-05-14T20:35:44.132Z,1.60
2023-05-14T20:38:12.936Z,2.20
2023-05-14T20:40:40.365Z,1.50
2023-05-14T20:43:07.415Z,2.20
2023-05-14T20:45:34.350Z,2.70
2023-05-14T20:48:01.645Z,1.70
2023-05-14T20:50:28.952Z,3.00
2023-05-14T20:52:55.926Z,2.00
2023-05-14T20:55:23.361Z,2.50
2023-05-14T20:57:50.695Z,3.00
2023-05-14T21:00:18.454Z,2.30
2023-05-14T21:02:45.526Z,2.30
2023-05-14T21:05:13.923Z,1.20
2023-05-14T21:07:41.058Z,2.60
2023-05-14T21:10:11.442Z,2.80
2023-05-14T21:12:38.355Z,3.00
2023-05-14T21:15:05.898Z,2.30
2023-05-14T21:17:32.820Z,2.60
2023-05-14T21:19:59.847Z,3.40
2023-05-14T21:22:27.381Z,2.70
2023-05-14T21:24:55.250Z,2.80
2023-05-14T21:27:22.472Z,2.60
2023-05-14T21:29:49.368Z,3.30
2023-05-14T21:32:16.311Z,2.80
2023-05-14T21:34:43.441Z,2.50
2023-05-14T21:37:10.371Z,3.50
2023-05-14T21:39:37.429Z,2.70
2023-05-14T21:42:04.606Z,3.50
2023-05-14T21:44:31.471Z,3.00
2023-05-14T21:46:58.385Z,1.90
2023-05-14T21:49:25.356Z,2.20
2023-05-14T21:51:54.300Z,1.90
2023-05-14T21:54:21.342Z,2.20
2023-05-14T21:56:48.404Z,3.10
2023-05-14T21:59:15.461Z,2.80
2023-05-14T22:04:13.025Z,3.10
2023-05-14T22:06:40.164Z,2.10
2023-05-14T22:09:07.117Z,3.10
2023-05-14T22:11:34.105Z,3.50
2023-05-14T22:14:00.993Z,3.70
2023-05-14T22:16:27.909Z,3.50
2023-05-14T22:18:55.004Z,3.30
2023-05-14T22:21:22.052Z,4.00
2023-05-14T22:23:50.426Z,3.10
2023-05-14T22:26:17.455Z,3.00
2023-05-14T22:28:44.612Z,3.20
2023-05-14T22:31:11.568Z,2.50
2023-05-14T22:33:38.594Z,2.00
2023-05-14T22:36:07.170Z,3.00
2023-05-14T22:38:34.334Z,2.40
2023-05-14T22:41:01.264Z,4.40
2023-05-14T22:43:28.720Z,1.70
2023-05-14T22:45:55.875Z,1.80
2023-05-14T22:48:23.017Z,2.70
2023-05-14T22:50:50.108Z,3.30
2023-05-14T22:53:17.008Z,2.10
2023-05-14T22:55:43.958Z,4.90
2023-05-14T22:58:10.899Z,2.50
2023-05-14T23:00:37.952Z,3.00
2023-05-14T23:03:04.925Z,2.80
2023-05-14T23:05:31.975Z,3.70
2023-05-14T23:07:59.199Z,1.90
2023-05-14T23:10:26.130Z,3.30
2023-05-14T23:12:52.986Z,3.20
2023-05-14T23:15:19.929Z,3.20
2023-05-14T23:17:46.901Z,2.20
2023-05-14T23:20:13.861Z,2.20
2023-05-14T23:22:40.984Z,2.80
2023-05-14T23:25:08.641Z,2.10
2023-05-14T23:27:35.657Z,3.90
2023-05-14T23:30:03.860Z,3.30
2023-05-14T23:32:30.874Z,3.00
2023-05-14T23:34:58.023Z,3.40
2023-05-14T23:37:24.955Z,2.00
2023-05-14T23:39:52.223Z,3.20
2023-05-14T23:42:19.188Z,3.30
2023-05-14T23:44:46.210Z,1.40
2023-05-14T23:47:13.152Z,1.90
2023-05-14T23:49:41.027Z,1.50
2023-05-14T23:52:08.071Z,1.60
2023-05-14T23:54:34.962Z,2.40
2023-05-14T23:57:03.279Z,2.00
2023-05-14T23:59:30.225Z,1.90
